createdAt,value
2019-05-12T00:00:10.066Z,76.00
2019-05-12T00:02:39.814Z,76.50
2019-05-12T00:05:09.980Z,77.20
2019-05-12T00:07:39.066Z,77.70
2019-05-12T00:10:08.776Z,77.70
2019-05-12T00:12:38.565Z,77.80
2019-05-12T00:15:08.477Z,78.50
2019-05-12T00:17:38.721Z,79.10
2019-05-12T00:20:08.739Z,79.60
2019-05-12T00:22:39.608Z,79.60
2019-05-12T00:25:09.002Z,79.60
2019-05-12T00:27:38.776Z,79.40
2019-05-12T00:30:10.610Z,79.60
2019-05-12T00:32:39.742Z,79.50
2019-05-12T00:35:08.379Z,80.30
2019-05-12T00:37:38.172Z,79.80
2019-05-12T00:40:08.814Z,79.90
2019-05-12T00:42:38.351Z,80.60
2019-05-12T00:45:08.111Z,80.60
2019-05-12T00:47:38.859Z,80.80
2019-05-12T00:50:08.327Z,80.00
2019-05-12T00:52:38.618Z,79.80
2019-05-12T00:55:08.250Z,80.30
2019-05-12T00:57:38.286Z,79.70
2019-05-12T01:00:08.892Z,79.60
2019-05-12T01:02:38.212Z,79.60
2019-05-12T01:05:08.582Z,79.60
2019-05-12T01:07:38.196Z,79.60
2019-05-12T01:10:08.635Z,79.00
2019-05-12T01:12:38.419Z,79.00
2019-05-12T01:15:08.827Z,78.60
2019-05-12T01:17:40.042Z,78.40
2019-05-12T01:20:09.484Z,78.30
2019-05-12T01:22:38.692Z,78.60
2019-05-12T01:25:08.701Z,78.90
2019-05-12T01:27:38.311Z,79.00
2019-05-12T01:30:08.808Z,79.30
2019-05-12T01:32:39.973Z,79.40
2019-05-12T01:35:09.477Z,79.60
2019-05-12T01:37:38.820Z,79.60
2019-05-12T01:40:10.395Z,80.20
2019-05-12T01:42:39.585Z,80.30
2019-05-12T01:45:09.317Z,80.90
2019-05-12T01:47:38.456Z,81.00
2019-05-12T01:50:09.043Z,81.30
2019-05-12T01:52:38.842Z,81.30
2019-05-12T01:55:08.530Z,81.20
2019-05-12T01:57:38.481Z,81.20
2019-05-12T02:00:12.486Z,81.50
2019-05-12T02:02:41.643Z,81.30
2019-05-12T02:05:11.212Z,82.10
2019-05-12T02:07:44.534Z,82.40
2019-05-12T02:10:13.940Z,83.30
2019-05-12T02:12:43.252Z,83.20
2019-05-12T02:15:13.746Z,83.30
2019-05-12T02:17:42.818Z,83.10
2019-05-12T02:20:11.762Z,83.70
2019-05-12T02:22:39.735Z,83.80
2019-05-12T02:25:09.129Z,84.10
2019-05-12T02:27:38.471Z,84.50
2019-05-12T02:30:09.812Z,84.20
2019-05-12T02:32:48.578Z,84.70
2019-05-12T02:35:10.195Z,84.20
2019-05-12T02:37:39.358Z,85.20
2019-05-12T02:40:08.765Z,86.40
2019-05-12T02:42:37.928Z,86.20
2019-05-12T02:45:08.329Z,86.60
2019-05-12T02:47:37.642Z,86.70
2019-05-12T02:50:07.022Z,87.50
2019-05-12T02:52:35.935Z,86.80
2019-05-12T02:55:06.587Z,86.80
2019-05-12T02:57:37.520Z,86.70
2019-05-12T03:00:07.585Z,87.30
2019-05-12T03:02:36.936Z,87.30
2019-05-12T03:05:08.114Z,87.60
2019-05-12T03:07:36.680Z,87.50
2019-05-12T03:10:08.623Z,87.70
2019-05-12T03:12:37.774Z,87.50
2019-05-12T03:15:07.279Z,87.90
2019-05-12T03:17:36.478Z,88.40
2019-05-12T03:20:06.393Z,88.60
2019-05-12T03:22:35.605Z,88.90
2019-05-12T03:25:15.446Z,89.00
2019-05-12T03:27:36.108Z,88.90
2019-05-12T03:30:11.741Z,88.90
2019-05-12T03:32:38.570Z,89.00
2019-05-12T03:35:09.326Z,88.50
2019-05-12T03:37:38.743Z,88.30
2019-05-12T03:40:07.850Z,87.80
2019-05-12T03:42:37.004Z,87.80
2019-05-12T03:45:06.211Z,87.70
2019-05-12T03:47:35.824Z,87.80
2019-05-12T03:50:08.634Z,87.70
2019-05-12T03:52:37.716Z,87.60
2019-05-12T03:55:25.939Z,87.50
2019-05-12T03:57:38.134Z,87.80
2019-05-12T04:00:09.650Z,87.90
2019-05-12T04:02:38.799Z,88.90
2019-05-12T04:05:08.010Z,89.10
2019-05-12T04:07:37.186Z,90.00
2019-05-12T04:10:07.308Z,89.90
2019-05-12T04:12:36.466Z,89.80
2019-05-12T04:15:06.858Z,89.90
2019-05-12T04:17:36.020Z,89.70
2019-05-12T04:20:06.523Z,89.70
2019-05-12T04:22:35.602Z,88.90
2019-05-12T04:25:06.396Z,88.90
2019-05-12T04:27:35.677Z,90.20
2019-05-12T04:30:06.146Z,90.40
2019-05-12T04:32:35.852Z,90.40
2019-05-12T04:35:08.585Z,90.30
2019-05-12T04:37:37.803Z,90.00
2019-05-12T04:40:06.647Z,89.90
2019-05-12T04:42:35.129Z,89.30
2019-05-12T04:45:05.326Z,89.10
2019-05-12T04:47:35.236Z,88.80
2019-05-12T04:50:05.883Z,88.40
2019-05-12T04:52:35.480Z,89.10
2019-05-12T04:55:05.630Z,89.20
2019-05-12T04:57:34.926Z,89.20
2019-05-12T05:00:05.137Z,89.40
2019-05-12T05:02:36.488Z,89.80
2019-05-12T05:05:07.825Z,89.80
2019-05-12T05:07:36.987Z,89.20
2019-05-12T05:10:06.115Z,89.30
2019-05-12T05:12:35.264Z,89.40
2019-05-12T05:15:06.586Z,89.40
2019-05-12T05:17:35.643Z,90.00
2019-05-12T05:20:06.773Z,88.20
2019-05-12T05:22:38.028Z,88.30
2019-05-12T05:25:06.881Z,87.30
2019-05-12T05:27:34.621Z,86.80
2019-05-12T05:30:04.186Z,86.40
2019-05-12T05:32:34.033Z,86.40
2019-05-12T05:35:07.364Z,85.90
2019-05-12T05:37:36.892Z,85.40
2019-05-12T05:40:06.775Z,84.80
2019-05-12T05:42:35.927Z,84.10
2019-05-12T05:45:10.016Z,83.50
2019-05-12T05:47:37.869Z,82.10
2019-05-12T05:50:08.101Z,80.00
2019-05-12T05:52:38.621Z,80.00
2019-05-12T05:55:14.481Z,80.30
2019-05-12T05:57:39.073Z,80.10
2019-05-12T06:00:17.417Z,80.10
2019-05-12T06:02:40.485Z,79.00
2019-05-12T06:05:10.141Z,79.20
2019-05-12T06:07:39.233Z,77.60
2019-05-12T06:10:09.090Z,78.50
2019-05-12T06:12:40.493Z,77.10
2019-05-12T06:15:09.516Z,77.50
2019-05-12T06:17:38.694Z,76.60
2019-05-12T06:20:07.984Z,76.20
2019-05-12T06:22:37.155Z,76.20
2019-05-12T06:25:07.011Z,76.00
2019-05-12T06:27:36.211Z,76.30
2019-05-12T06:30:08.112Z,76.00
2019-05-12T06:32:41.146Z,74.80
2019-05-12T06:35:08.194Z,75.00
2019-05-12T06:37:35.980Z,75.40
2019-05-12T06:40:05.632Z,74.90
2019-05-12T06:42:34.738Z,73.50
2019-05-12T06:45:03.883Z,73.50
2019-05-12T06:47:34.321Z,73.20
2019-05-12T06:50:05.101Z,73.10
2019-05-12T06:52:38.552Z,71.70
2019-05-12T06:55:06.808Z,72.00
2019-05-12T06:57:40.145Z,70.40
2019-05-12T07:00:07.212Z,70.40
2019-05-12T07:02:48.256Z,71.10
2019-05-12T07:05:07.260Z,70.20
2019-05-12T07:07:41.955Z,68.80
2019-05-12T07:10:13.075Z,69.80
2019-05-12T07:12:54.150Z,70.20
2019-05-12T07:15:10.900Z,69.70
2019-05-12T07:17:44.265Z,69.30
2019-05-12T07:20:14.736Z,68.50
2019-05-12T07:22:47.798Z,68.40
2019-05-12T07:25:14.511Z,67.30
2019-05-12T07:27:45.707Z,67.10
2019-05-12T07:30:13.737Z,63.70
2019-05-12T07:32:43.434Z,65.10
2019-05-12T07:35:14.716Z,63.60
2019-05-12T07:37:45.011Z,63.30
2019-05-12T07:40:14.295Z,61.10
2019-05-12T07:42:43.896Z,60.10
2019-05-12T07:45:20.659Z,58.70
2019-05-12T07:47:45.031Z,57.20
2019-05-12T07:50:18.250Z,55.50
2019-05-12T07:52:45.599Z,54.70
2019-05-12T07:55:15.009Z,53.00
2019-05-12T07:57:52.939Z,53.30
2019-05-12T08:00:21.313Z,52.90
2019-05-12T08:02:46.553Z,53.00
2019-05-12T08:05:20.188Z,53.10
2019-05-12T08:07:46.095Z,53.50
2019-05-12T08:10:19.864Z,53.50
2019-05-12T08:12:45.517Z,55.20
2019-05-12T08:15:14.384Z,53.80
2019-05-12T08:17:44.095Z,53.10
2019-05-12T08:20:13.705Z,52.90
2019-05-12T08:22:43.820Z,50.60
2019-05-12T08:25:13.597Z,51.00
2019-05-12T08:27:45.135Z,48.00
2019-05-12T08:30:14.114Z,47.60
2019-05-12T08:32:44.381Z,48.40
2019-05-12T08:35:14.191Z,47.80
2019-05-12T08:37:44.870Z,48.40
2019-05-12T08:40:15.558Z,48.30
2019-05-12T08:42:44.974Z,47.80
2019-05-12T08:45:17.021Z,47.90
2019-05-12T08:47:44.085Z,47.20
2019-05-12T08:50:13.825Z,48.00
2019-05-12T08:52:44.193Z,45.20
2019-05-12T08:55:16.704Z,43.90
2019-05-12T08:57:49.408Z,44.40
2019-05-12T09:00:18.636Z,45.20
2019-05-12T09:02:50.561Z,45.10
2019-05-12T09:05:18.264Z,44.10
2019-05-12T09:07:46.631Z,44.60
2019-05-12T09:10:15.467Z,44.50
2019-05-12T09:12:44.135Z,44.20
2019-05-12T09:15:13.629Z,44.00
2019-05-12T09:17:52.495Z,42.00
2019-05-12T09:20:13.931Z,40.70
2019-05-12T09:22:43.354Z,41.90
2019-05-12T09:25:14.319Z,42.90
2019-05-12T09:27:48.030Z,43.40
2019-05-12T09:30:14.250Z,40.20
2019-05-12T09:32:48.576Z,40.70
2019-05-12T09:35:14.504Z,41.10
2019-05-12T09:37:44.132Z,39.10
2019-05-12T09:40:14.887Z,38.20
2019-05-12T09:42:44.156Z,39.00
2019-05-12T09:45:13.764Z,41.40
2019-05-12T09:47:43.609Z,37.10
2019-05-12T09:50:18.300Z,38.20
2019-05-12T09:52:44.220Z,40.30
2019-05-12T09:55:14.816Z,41.90
2019-05-12T09:57:45.100Z,38.40
2019-05-12T10:00:15.464Z,34.10
2019-05-12T10:02:44.270Z,35.70
2019-05-12T10:05:14.391Z,37.30
2019-05-12T10:07:44.519Z,37.80
2019-05-12T10:10:15.024Z,36.80
2019-05-12T10:12:46.466Z,36.90
2019-05-12T10:15:18.668Z,37.80
2019-05-12T10:17:45.785Z,38.90
2019-05-12T10:20:14.462Z,39.90
2019-05-12T10:22:43.734Z,38.60
2019-05-12T10:25:14.403Z,38.20
2019-05-12T10:27:44.346Z,36.40
2019-05-12T10:30:17.329Z,37.50
2019-05-12T10:32:45.406Z,36.00
2019-05-12T10:35:20.857Z,36.70
2019-05-12T10:37:47.282Z,37.40
2019-05-12T10:40:15.916Z,38.20
2019-05-12T10:42:46.096Z,36.20
2019-05-12T10:45:20.264Z,37.60
2019-05-12T10:47:45.976Z,37.60
2019-05-12T10:50:14.492Z,38.60
2019-05-12T10:52:43.996Z,37.90
2019-05-12T10:55:14.530Z,36.50
2019-05-12T10:57:44.270Z,37.30
2019-05-12T11:00:19.793Z,37.30
2019-05-12T11:02:45.931Z,34.60
2019-05-12T11:05:21.336Z,34.60
2019-05-12T11:07:44.046Z,37.00
2019-05-12T11:10:19.484Z,36.50
2019-05-12T11:12:44.167Z,34.80
2019-05-12T11:15:14.552Z,34.30
2019-05-12T11:17:54.261Z,33.70
2019-05-12T11:20:25.072Z,33.20
2019-05-12T11:22:54.429Z,33.20
2019-05-12T11:25:24.719Z,34.40
2019-05-12T11:27:54.913Z,36.70
2019-05-12T11:30:24.020Z,35.80
2019-05-12T11:32:53.976Z,33.40
2019-05-12T11:35:23.722Z,33.40
2019-05-12T11:37:53.856Z,33.10
2019-05-12T11:40:23.851Z,31.90
2019-05-12T11:42:59.517Z,32.50
2019-05-12T11:45:24.230Z,33.20
2019-05-12T11:47:59.509Z,33.00
2019-05-12T11:50:23.892Z,34.00
2019-05-12T11:52:52.304Z,34.20
2019-05-12T11:55:21.289Z,35.20
2019-05-12T11:57:51.499Z,34.70
2019-05-12T12:00:24.057Z,33.40
2019-05-12T12:02:52.286Z,34.60
2019-05-12T12:05:20.078Z,35.80
2019-05-12T12:07:52.647Z,36.30
2019-05-12T12:10:20.883Z,37.10
2019-05-12T12:12:49.686Z,34.90
2019-05-12T12:15:20.364Z,32.60
2019-05-12T12:17:47.788Z,33.10
2019-05-12T12:20:22.544Z,34.50
2019-05-12T12:22:47.908Z,35.30
2019-05-12T12:25:17.828Z,34.20
2019-05-12T12:27:46.789Z,34.30
2019-05-12T12:30:19.753Z,34.20
2019-05-12T12:32:50.293Z,32.40
2019-05-12T12:35:17.205Z,35.30
2019-05-12T12:37:46.127Z,35.20
2019-05-12T12:40:14.509Z,35.10
2019-05-12T12:42:47.099Z,33.70
2019-05-12T12:45:14.495Z,33.10
2019-05-12T12:47:47.696Z,34.80
2019-05-12T12:50:14.387Z,34.20
2019-05-12T12:52:44.761Z,34.00
2019-05-12T12:55:14.079Z,35.20
2019-05-12T12:57:46.390Z,36.20
2019-05-12T13:00:28.471Z,30.60
2019-05-12T13:02:49.126Z,31.20
2019-05-12T13:05:15.133Z,30.00
2019-05-12T13:07:43.968Z,28.70
2019-05-12T13:10:14.349Z,30.00
2019-05-12T13:12:43.904Z,30.70
2019-05-12T13:15:14.462Z,32.60
2019-05-12T13:17:44.736Z,31.20
2019-05-12T13:20:14.177Z,33.00
2019-05-12T13:22:44.356Z,33.30
2019-05-12T13:25:14.272Z,31.40
2019-05-12T13:27:43.254Z,32.00
2019-05-12T13:30:16.344Z,31.90
2019-05-12T13:32:43.700Z,32.20
2019-05-12T13:35:16.328Z,34.10
2019-05-12T13:37:43.477Z,33.00
2019-05-12T13:40:12.850Z,31.50
2019-05-12T13:42:43.611Z,32.00
2019-05-12T13:45:15.662Z,32.50
2019-05-12T13:47:43.940Z,32.60
2019-05-12T13:50:21.272Z,32.60
2019-05-12T13:52:43.768Z,31.00
2019-05-12T13:55:13.440Z,31.30
2019-05-12T13:57:46.697Z,30.00
2019-05-12T14:00:14.079Z,32.70
2019-05-12T14:02:44.162Z,31.40
2019-05-12T14:05:15.068Z,30.60
2019-05-12T14:07:44.030Z,30.10
2019-05-12T14:10:14.062Z,29.90
2019-05-12T14:12:43.988Z,29.50
2019-05-12T14:15:14.187Z,28.20
2019-05-12T14:17:43.788Z,28.30
2019-05-12T14:20:15.932Z,27.50
2019-05-12T14:22:44.861Z,27.90
2019-05-12T14:25:15.168Z,26.80
2019-05-12T14:27:44.690Z,27.10
2019-05-12T14:30:14.691Z,25.80
2019-05-12T14:32:44.101Z,24.90
2019-05-12T14:35:13.415Z,24.40
2019-05-12T14:37:45.890Z,21.50
2019-05-12T14:40:14.373Z,21.70
2019-05-12T14:42:44.262Z,22.50
2019-05-12T14:45:13.959Z,22.00
2019-05-12T14:47:43.685Z,20.80
2019-05-12T14:50:14.077Z,21.00
2019-05-12T14:52:43.911Z,20.70
2019-05-12T14:55:13.818Z,20.00
2019-05-12T14:57:42.918Z,19.40
2019-05-12T15:00:17.564Z,19.10
2019-05-12T15:02:43.680Z,18.20
2019-05-12T15:05:14.129Z,14.00
2019-05-12T15:07:51.011Z,16.50
2019-05-12T15:10:14.415Z,13.70
2019-05-12T15:12:44.136Z,13.60
2019-05-12T15:15:20.313Z,13.00
2019-05-12T15:17:44.670Z,13.40
2019-05-12T15:20:14.141Z,14.10
2019-05-12T15:22:51.333Z,15.40
2019-05-12T15:25:14.469Z,16.10
2019-05-12T15:27:45.990Z,17.00
2019-05-12T15:30:22.723Z,18.30
2019-05-12T15:32:44.964Z,16.30
2019-05-12T15:35:14.137Z,15.90
2019-05-12T15:37:43.697Z,15.70
2019-05-12T15:40:14.499Z,16.10
2019-05-12T15:42:45.253Z,15.60
2019-05-12T15:45:16.418Z,15.60
2019-05-12T15:47:45.218Z,16.20
2019-05-12T15:50:14.834Z,15.90
2019-05-12T15:52:45.486Z,14.90
2019-05-12T15:55:17.821Z,15.20
2019-05-12T15:57:45.260Z,15.00
2019-05-12T16:00:16.872Z,15.30
2019-05-12T16:02:45.426Z,15.40
2019-05-12T16:05:14.834Z,15.30
2019-05-12T16:07:47.530Z,15.60
2019-05-12T16:10:16.021Z,15.50
2019-05-12T16:12:44.828Z,17.10
2019-05-12T16:15:19.193Z,17.00
2019-05-12T16:17:44.812Z,16.60
2019-05-12T16:20:14.633Z,15.90
2019-05-12T16:22:45.156Z,15.90
2019-05-12T16:25:15.415Z,15.20
2019-05-12T16:27:44.859Z,15.10
2019-05-12T16:30:14.253Z,14.80
2019-05-12T16:32:47.643Z,14.90
2019-05-12T16:35:14.721Z,15.20
2019-05-12T16:37:44.423Z,15.40
2019-05-12T16:40:14.082Z,16.10
2019-05-12T16:42:50.330Z,15.80
2019-05-12T16:45:14.645Z,16.40
2019-05-12T16:47:44.788Z,17.00
2019-05-12T16:50:15.902Z,17.60
2019-05-12T16:52:45.509Z,18.90
2019-05-12T16:55:14.796Z,20.30
2019-05-12T16:57:51.239Z,20.70
2019-05-12T17:00:14.863Z,21.80
2019-05-12T17:02:52.017Z,22.60
2019-05-12T17:05:19.797Z,23.70
2019-05-12T17:07:50.166Z,24.60
2019-05-12T17:10:16.853Z,25.30
2019-05-12T17:12:48.363Z,26.30
2019-05-12T17:15:16.689Z,24.00
2019-05-12T17:17:45.547Z,24.70
2019-05-12T17:20:14.544Z,24.40
2019-05-12T17:22:45.420Z,25.10
2019-05-12T17:25:15.207Z,24.60
2019-05-12T17:27:45.140Z,24.60
2019-05-12T17:30:14.761Z,25.20
2019-05-12T17:32:57.058Z,25.70
2019-05-12T17:35:14.963Z,27.20
2019-05-12T17:37:44.930Z,27.50
2019-05-12T17:40:20.002Z,28.50
2019-05-12T17:42:44.585Z,29.60
2019-05-12T17:45:18.652Z,30.10
2019-05-12T17:47:44.981Z,30.50
2019-05-12T17:50:14.154Z,31.40
2019-05-12T17:52:44.930Z,32.10
2019-05-12T17:55:14.968Z,32.70
2019-05-12T17:57:44.406Z,32.40
2019-05-12T18:00:15.301Z,33.00
2019-05-12T18:02:49.403Z,32.50
2019-05-12T18:05:15.906Z,32.70
2019-05-12T18:07:50.495Z,32.00
2019-05-12T18:10:15.821Z,32.40
2019-05-12T18:12:45.481Z,32.50
2019-05-12T18:15:15.537Z,32.60
2019-05-12T18:17:49.713Z,32.50
2019-05-12T18:20:15.774Z,32.60
2019-05-12T18:22:45.346Z,33.00
2019-05-12T18:25:15.600Z,33.70
2019-05-12T18:27:50.500Z,34.70
2019-05-12T18:30:19.153Z,35.10
2019-05-12T18:32:46.751Z,35.40
2019-05-12T18:35:14.495Z,35.40
2019-05-12T18:40:59.623Z,34.80
2019-05-12T18:43:27.448Z,35.40
2019-05-12T18:46:04.795Z,34.70
2019-05-12T18:48:26.793Z,35.00
2019-05-12T18:50:54.607Z,35.40
2019-05-12T18:53:29.941Z,36.10
2019-05-12T18:55:54.094Z,35.90
2019-05-12T18:58:30.845Z,35.60
2019-05-12T19:00:54.175Z,35.10
2019-05-12T19:03:21.971Z,35.30
2019-05-12T19:05:50.707Z,35.30
2019-05-12T19:08:20.266Z,35.20
2019-05-12T19:10:51.565Z,35.30
2019-05-12T19:13:19.711Z,36.10
2019-05-12T19:15:52.692Z,35.70
2019-05-12T19:18:24.326Z,36.00
2019-05-12T19:20:50.889Z,36.30
2019-05-12T19:23:20.122Z,36.50
2019-05-12T19:25:48.474Z,36.60
2019-05-12T19:28:17.437Z,37.50
2019-05-12T19:30:45.234Z,38.60
2019-05-12T19:33:13.838Z,38.60
2019-05-12T19:35:41.704Z,39.10
2019-05-12T19:38:10.296Z,39.40
2019-05-12T19:40:39.177Z,39.80
2019-05-12T19:43:08.465Z,40.40
2019-05-12T19:45:37.809Z,40.60
2019-05-12T19:48:06.400Z,40.60
2019-05-12T19:50:35.192Z,40.60
2019-05-12T19:53:04.288Z,41.30
2019-05-12T19:55:33.831Z,41.20
2019-05-12T19:58:10.706Z,41.20
2019-05-12T20:00:33.981Z,41.60
2019-05-12T20:03:04.322Z,42.10
2019-05-12T20:05:34.214Z,42.30
2019-05-12T20:08:04.101Z,42.40
2019-05-12T20:10:36.175Z,42.80
2019-05-12T20:13:04.276Z,43.10
2019-05-12T20:15:36.786Z,43.40
2019-05-12T20:18:04.313Z,43.50
2019-05-12T20:20:37.806Z,44.50
2019-05-12T20:23:04.571Z,44.60
2019-05-12T20:25:34.098Z,44.90
2019-05-12T20:28:10.673Z,45.30
2019-05-12T20:30:34.187Z,46.70
2019-05-12T20:33:04.135Z,47.00
2019-05-12T20:35:33.789Z,47.00
2019-05-12T20:38:04.198Z,47.50
2019-05-12T20:40:37.577Z,48.90
2019-05-12T20:43:08.487Z,49.50
2019-05-12T20:45:40.675Z,50.10
2019-05-12T20:48:05.975Z,50.90
2019-05-12T20:50:38.748Z,52.00
2019-05-12T20:53:05.589Z,53.20
2019-05-12T20:55:39.577Z,54.10
2019-05-12T20:58:04.979Z,54.20
2019-05-12T21:00:33.739Z,55.20
2019-05-12T21:03:04.414Z,55.30
2019-05-12T21:05:34.376Z,55.60
2019-05-12T21:08:11.348Z,56.10
2019-05-12T21:10:34.408Z,56.40
2019-05-12T21:13:03.044Z,57.60
2019-05-12T21:15:40.645Z,57.00
2019-05-12T21:18:07.105Z,57.20
2019-05-12T21:20:33.749Z,57.90
2019-05-12T21:23:09.340Z,58.10
2019-05-12T21:25:37.930Z,58.60
2019-05-12T21:28:07.893Z,59.30
2019-05-12T21:30:42.149Z,59.60
2019-05-12T21:33:08.087Z,60.00
2019-05-12T21:35:40.631Z,59.90
2019-05-12T21:38:07.537Z,59.90
2019-05-12T21:40:36.377Z,60.20
2019-05-12T21:43:05.534Z,60.90
2019-05-12T21:45:34.765Z,61.70
2019-05-12T21:48:04.326Z,61.90
2019-05-12T21:50:38.040Z,62.60
2019-05-12T21:53:04.550Z,63.00
2019-05-12T21:55:34.701Z,63.70
2019-05-12T21:58:10.511Z,63.80
2019-05-12T22:00:45.000Z,64.30
2019-05-12T22:03:15.592Z,64.70
2019-05-12T22:05:51.514Z,65.10
2019-05-12T22:08:22.318Z,65.60
2019-05-12T22:10:51.479Z,66.00
2019-05-12T22:13:19.209Z,66.00
2019-05-12T22:15:51.482Z,66.20
2019-05-12T22:18:18.693Z,66.40
2019-05-12T22:20:46.677Z,66.40
2019-05-12T22:23:16.714Z,66.70
2019-05-12T22:25:49.267Z,67.10
2019-05-12T22:28:16.389Z,67.70
2019-05-12T22:30:44.170Z,67.90
2019-05-12T22:33:13.823Z,68.10
2019-05-12T22:35:44.380Z,68.30
2019-05-12T22:38:18.967Z,69.00
2019-05-12T22:40:49.359Z,69.50
2019-05-12T22:43:15.283Z,70.00
2019-05-12T22:45:46.603Z,70.00
2019-05-12T22:48:14.894Z,70.00
2019-05-12T22:50:43.698Z,70.20
2019-05-12T22:53:13.423Z,70.20
2019-05-12T22:55:42.802Z,70.80
2019-05-12T22:58:18.341Z,70.40
2019-05-12T23:00:44.273Z,70.80
2019-05-12T23:03:14.945Z,71.30
2019-05-12T23:05:43.988Z,71.30
2019-05-12T23:08:14.085Z,71.90
2019-05-12T23:10:51.278Z,72.40
2019-05-12T23:13:14.346Z,73.00
2019-05-12T23:15:45.273Z,74.10
2019-05-12T23:18:19.667Z,74.30
2019-05-12T23:20:45.338Z,74.50
2019-05-12T23:23:15.434Z,74.60
2019-05-12T23:25:44.672Z,74.70
2019-05-12T23:28:13.182Z,74.80
2019-05-12T23:30:43.777Z,74.60
2019-05-12T23:33:14.065Z,74.80
2019-05-12T23:35:44.344Z,75.30
2019-05-12T23:38:18.868Z,75.00
2019-05-12T23:40:44.351Z,75.20
2019-05-12T23:43:14.490Z,75.10
2019-05-12T23:45:44.474Z,75.50
2019-05-12T23:48:14.405Z,75.40
2019-05-12T23:50:43.940Z,75.70
2019-05-12T23:53:14.069Z,75.60
2019-05-12T23:55:43.804Z,75.70
2019-05-12T23:58:14.420Z,75.60
